createdAt,value
2019-02-12T00:00:07.128Z,0
2019-02-12T00:01:17.056Z,0
2019-02-12T00:02:26.998Z,0
2019-02-12T00:03:36.443Z,0
2019-02-12T00:04:46.377Z,0
2019-02-12T00:05:56.319Z,0
2019-02-12T00:07:06.268Z,0
2019-02-12T00:08:16.259Z,0
2019-02-12T00:09:26.187Z,0
2019-02-12T00:10:36.108Z,0
2019-02-12T00:11:46.036Z,0
2019-02-12T00:12:55.712Z,0
2019-02-12T00:14:05.642Z,0
2019-02-12T00:15:15.326Z,0
2019-02-12T00:16:25.011Z,0
2019-02-12T00:17:34.439Z,0
2019-02-12T00:18:43.863Z,0
2019-02-12T00:19:53.782Z,0
2019-02-12T00:21:11.647Z,0
2019-02-12T00:22:21.086Z,0
2019-02-12T00:23:31.033Z,0
2019-02-12T00:24:40.705Z,0
2019-02-12T00:25:50.149Z,0
2019-02-12T00:27:00.153Z,0
2019-02-12T00:28:09.832Z,0
2019-02-12T00:29:19.258Z,0
2019-02-12T00:30:28.685Z,0
2019-02-12T00:31:38.132Z,0
2019-02-12T00:32:48.080Z,0
2019-02-12T00:33:57.760Z,0
2019-02-12T00:35:07.448Z,0
2019-02-12T00:36:17.392Z,0
2019-02-12T00:37:27.364Z,0
2019-02-12T00:38:37.301Z,0
2019-02-12T00:39:46.983Z,0
2019-02-12T00:40:56.671Z,0
2019-02-12T00:42:06.615Z,0
2019-02-12T00:43:16.293Z,0
2019-02-12T00:44:25.968Z,0
2019-02-12T00:45:35.643Z,0
2019-02-12T00:46:45.322Z,0
2019-02-12T00:47:54.752Z,0
2019-02-12T00:49:04.435Z,0
2019-02-12T00:50:14.121Z,0
2019-02-12T00:51:27.279Z,0
2019-02-12T00:52:36.453Z,0
2019-02-12T00:53:46.127Z,0
2019-02-12T00:54:55.841Z,0
2019-02-12T00:56:05.274Z,0
2019-02-12T00:57:14.702Z,0
2019-02-12T00:58:24.391Z,0
2019-02-12T00:59:34.084Z,0
2019-02-12T01:00:44.090Z,0
2019-02-12T01:01:53.535Z,0
2019-02-12T01:03:03.009Z,0
2019-02-12T01:04:12.708Z,0
2019-02-12T01:05:22.142Z,0
2019-02-12T01:06:31.577Z,0
2019-02-12T01:07:41.535Z,0
2019-02-12T01:08:50.962Z,0
2019-02-12T01:10:00.675Z,0
2019-02-12T01:11:10.711Z,0
2019-02-12T01:12:20.711Z,0
2019-02-12T01:13:30.387Z,0
2019-02-12T01:14:40.076Z,0
2019-02-12T01:15:49.248Z,0
2019-02-12T01:16:58.935Z,0
2019-02-12T01:18:08.361Z,0
2019-02-12T01:19:17.539Z,0
2019-02-12T01:20:27.226Z,0
2019-02-12T01:21:36.923Z,0
2019-02-12T01:22:46.346Z,0
2019-02-12T01:23:56.018Z,0
2019-02-12T01:25:05.700Z,0
2019-02-12T01:26:15.123Z,0
2019-02-12T01:27:24.571Z,0
2019-02-12T01:28:34.249Z,0
2019-02-12T01:29:43.435Z,0
2019-02-12T01:30:53.138Z,0
2019-02-12T01:32:03.078Z,0
2019-02-12T01:33:12.775Z,0
2019-02-12T01:34:22.722Z,0
2019-02-12T01:35:32.151Z,0
2019-02-12T01:36:41.329Z,0
2019-02-12T01:37:51.262Z,0
2019-02-12T01:39:01.212Z,0
2019-02-12T01:40:10.910Z,0
2019-02-12T01:41:20.347Z,0
2019-02-12T01:42:30.309Z,0
2019-02-12T01:43:39.988Z,0
2019-02-12T01:44:49.672Z,0
2019-02-12T01:45:59.614Z,0
2019-02-12T01:47:09.296Z,0
2019-02-12T01:48:19.242Z,0
2019-02-12T01:49:28.947Z,0
2019-02-12T01:50:38.394Z,0
2019-02-12T01:51:48.158Z,0
2019-02-12T01:52:57.598Z,0
2019-02-12T01:54:07.518Z,0
2019-02-12T01:55:16.947Z,0
2019-02-12T01:56:26.894Z,0
2019-02-12T01:57:36.859Z,0
2019-02-12T01:58:46.799Z,0
2019-02-12T01:59:55.991Z,0
2019-02-12T02:01:05.945Z,0
2019-02-12T02:02:15.633Z,0
2019-02-12T02:03:25.325Z,0
2019-02-12T02:04:34.273Z,0
2019-02-12T02:05:44.204Z,0
2019-02-12T02:06:53.888Z,0
2019-02-12T02:08:03.599Z,0
2019-02-12T02:09:12.780Z,0
2019-02-12T02:10:22.486Z,0
2019-02-12T02:11:32.162Z,0
2019-02-12T02:12:41.860Z,0
2019-02-12T02:13:51.287Z,0
2019-02-12T02:15:00.716Z,0
2019-02-12T02:16:10.646Z,0
2019-02-12T02:17:20.571Z,0
2019-02-12T02:18:30.497Z,0
2019-02-12T02:19:40.175Z,0
2019-02-12T02:20:49.866Z,0
2019-02-12T02:21:59.832Z,0
2019-02-12T02:23:09.258Z,0
2019-02-12T02:24:19.190Z,0
2019-02-12T02:25:29.120Z,0
2019-02-12T02:26:38.545Z,0
2019-02-12T02:27:48.224Z,0
2019-02-12T02:28:58.158Z,0
2019-02-12T02:30:07.948Z,0
2019-02-12T02:31:17.396Z,0
2019-02-12T02:32:27.136Z,0
2019-02-12T02:33:37.121Z,0
2019-02-12T02:34:46.310Z,0
2019-02-12T02:35:56.260Z,0
2019-02-12T02:37:05.986Z,0
2019-02-12T02:38:15.914Z,0
2019-02-12T02:39:25.612Z,0
2019-02-12T02:40:35.545Z,0
2019-02-12T02:41:45.238Z,0
2019-02-12T02:42:54.745Z,0
2019-02-12T02:44:04.693Z,0
2019-02-12T02:45:14.382Z,0
2019-02-12T02:46:24.105Z,0
2019-02-12T02:47:34.092Z,0
2019-02-12T02:48:44.039Z,0
2019-02-12T02:49:53.726Z,0
2019-02-12T02:51:03.680Z,0
2019-02-12T02:52:13.609Z,0
2019-02-12T02:53:23.560Z,0
2019-02-12T02:54:33.491Z,0
2019-02-12T02:55:43.196Z,0
2019-02-12T02:56:53.170Z,0
2019-02-12T02:58:02.844Z,0
2019-02-12T02:59:12.791Z,0
2019-02-12T03:00:22.795Z,0
2019-02-12T03:01:32.489Z,0
2019-02-12T03:02:42.425Z,0
2019-02-12T03:03:52.360Z,0
2019-02-12T03:05:01.580Z,0
2019-02-12T03:06:11.270Z,0
2019-02-12T03:07:21.211Z,0
2019-02-12T03:08:30.646Z,0
2019-02-12T03:09:40.335Z,0
2019-02-12T03:10:52.170Z,0
2019-02-12T03:12:02.304Z,0
2019-02-12T03:13:12.250Z,0
2019-02-12T03:14:21.936Z,0
2019-02-12T03:15:31.875Z,0
2019-02-12T03:16:41.550Z,0
2019-02-12T03:17:51.012Z,0
2019-02-12T03:19:00.716Z,0
2019-02-12T03:20:10.164Z,0
2019-02-12T03:21:20.121Z,0
2019-02-12T03:22:30.057Z,0
2019-02-12T03:23:39.998Z,0
2019-02-12T03:24:49.695Z,0
2019-02-12T03:25:59.379Z,0
2019-02-12T03:27:09.065Z,0
2019-02-12T03:28:19.047Z,0
2019-02-12T03:29:29.005Z,0
2019-02-12T03:30:39.018Z,0
2019-02-12T03:31:49.011Z,0
2019-02-12T03:32:58.757Z,0
2019-02-12T03:34:08.724Z,0
2019-02-12T03:35:18.534Z,0
2019-02-12T03:36:28.218Z,0
2019-02-12T03:37:37.902Z,0
2019-02-12T03:38:47.596Z,0
2019-02-12T03:39:57.031Z,0
2019-02-12T03:41:06.773Z,0
2019-02-12T03:42:16.457Z,0
2019-02-12T03:43:25.909Z,0
2019-02-12T03:44:35.840Z,0
2019-02-12T03:45:45.293Z,0
2019-02-12T03:46:55.223Z,0
2019-02-12T03:48:05.181Z,0
2019-02-12T03:49:15.148Z,0
2019-02-12T03:50:24.852Z,0
2019-02-12T03:51:34.553Z,0
2019-02-12T03:52:44.535Z,0
2019-02-12T03:53:54.224Z,0
2019-02-12T03:55:04.146Z,0
2019-02-12T03:56:13.821Z,0
2019-02-12T03:57:23.751Z,0
2019-02-12T03:58:33.675Z,0
2019-02-12T03:59:43.348Z,0
2019-02-12T04:00:53.295Z,0
2019-02-12T04:02:03.225Z,0
2019-02-12T04:03:12.927Z,0
2019-02-12T04:04:22.365Z,0
2019-02-12T04:05:32.322Z,0
2019-02-12T04:06:42.033Z,0
2019-02-12T04:07:51.748Z,0
2019-02-12T04:09:01.473Z,0
2019-02-12T04:10:11.428Z,0
2019-02-12T04:11:21.118Z,0
2019-02-12T04:12:30.793Z,0
2019-02-12T04:13:40.481Z,0
2019-02-12T04:14:50.410Z,0
2019-02-12T04:16:00.346Z,0
2019-02-12T04:17:09.790Z,0
2019-02-12T04:18:19.241Z,0
2019-02-12T04:19:29.175Z,0
2019-02-12T04:20:38.619Z,0
2019-02-12T04:21:48.307Z,0
2019-02-12T04:22:58.002Z,0
2019-02-12T04:24:07.965Z,0
2019-02-12T04:25:17.911Z,0
2019-02-12T04:26:27.364Z,0
2019-02-12T04:27:37.060Z,0
2019-02-12T04:28:47.011Z,0
2019-02-12T04:29:56.435Z,0
2019-02-12T04:31:06.385Z,0
2019-02-12T04:32:16.360Z,0
2019-02-12T04:33:25.789Z,0
2019-02-12T04:34:35.754Z,0
2019-02-12T04:35:45.201Z,0
2019-02-12T04:36:54.888Z,0
2019-02-12T04:38:04.580Z,0
2019-02-12T04:39:14.520Z,0
2019-02-12T04:40:24.449Z,0
2019-02-12T04:41:33.946Z,0
2019-02-12T04:42:43.886Z,0
2019-02-12T04:43:53.804Z,0
2019-02-12T04:45:03.646Z,0
2019-02-12T04:46:13.573Z,0
2019-02-12T04:47:23.002Z,0
2019-02-12T04:48:32.927Z,0
2019-02-12T04:49:42.632Z,0
2019-02-12T04:50:52.323Z,0
2019-02-12T04:52:02.001Z,0
2019-02-12T04:53:11.958Z,0
2019-02-12T04:54:21.145Z,0
2019-02-12T04:55:30.832Z,0
2019-02-12T04:56:40.794Z,0
2019-02-12T04:57:50.717Z,0
2019-02-12T04:59:00.675Z,0
2019-02-12T05:00:10.380Z,0
2019-02-12T05:01:20.315Z,0
2019-02-12T05:02:30.247Z,0
2019-02-12T05:03:40.194Z,0
2019-02-12T05:04:49.876Z,0
2019-02-12T05:05:59.810Z,0
2019-02-12T05:07:09.811Z,0
2019-02-12T05:08:19.493Z,0
2019-02-12T05:09:28.704Z,0
2019-02-12T05:10:38.633Z,0
2019-02-12T05:11:48.586Z,0
2019-02-12T05:12:58.512Z,0
2019-02-12T05:14:08.456Z,0
2019-02-12T05:15:18.154Z,0
2019-02-12T05:16:27.836Z,0
2019-02-12T05:17:37.798Z,0
2019-02-12T05:18:46.985Z,0
2019-02-12T05:19:56.907Z,0
2019-02-12T05:21:06.618Z,0
2019-02-12T05:22:16.058Z,0
2019-02-12T05:23:25.494Z,0
2019-02-12T05:24:35.176Z,0
2019-02-12T05:25:44.901Z,0
2019-02-12T05:26:54.629Z,0
2019-02-12T05:28:04.590Z,0
2019-02-12T05:29:13.832Z,0
2019-02-12T05:30:23.540Z,0
2019-02-12T05:31:33.494Z,0
2019-02-12T05:32:43.178Z,0
2019-02-12T05:33:52.882Z,0
2019-02-12T05:35:03.117Z,0
2019-02-12T05:36:13.073Z,0
2019-02-12T05:37:22.752Z,0
2019-02-12T05:38:32.229Z,0
2019-02-12T05:39:41.666Z,0
2019-02-12T05:40:50.871Z,0
2019-02-12T05:42:00.814Z,0
2019-02-12T05:43:10.499Z,0
2019-02-12T05:44:20.455Z,0
2019-02-12T05:45:30.398Z,0
2019-02-12T05:46:39.583Z,0
2019-02-12T05:47:49.287Z,0
2019-02-12T05:48:59.231Z,0
2019-02-12T05:50:09.179Z,0
2019-02-12T05:51:18.906Z,0
2019-02-12T05:52:28.843Z,0
2019-02-12T05:53:38.800Z,0
2019-02-12T05:54:48.487Z,0
2019-02-12T05:55:58.191Z,0
2019-02-12T05:57:08.194Z,0
2019-02-12T05:58:17.882Z,0
2019-02-12T05:59:27.334Z,0
2019-02-12T06:00:37.022Z,0
2019-02-12T06:01:46.968Z,0
2019-02-12T06:02:57.014Z,0
2019-02-12T06:04:06.969Z,0
2019-02-12T06:05:16.906Z,0
2019-02-12T06:06:26.446Z,0
2019-02-12T06:07:36.386Z,0
2019-02-12T06:08:46.106Z,0
2019-02-12T06:09:55.816Z,0
2019-02-12T06:11:05.499Z,0
2019-02-12T06:12:14.989Z,0
2019-02-12T06:13:24.669Z,0
2019-02-12T06:14:34.378Z,0
2019-02-12T06:15:44.318Z,0
2019-02-12T06:16:54.278Z,0
2019-02-12T06:18:03.457Z,0
2019-02-12T06:19:14.073Z,0
2019-02-12T06:20:24.008Z,0
2019-02-12T06:21:33.707Z,0
2019-02-12T06:22:43.669Z,0
2019-02-12T06:23:53.420Z,0
2019-02-12T06:25:03.348Z,0
2019-02-12T06:26:13.309Z,0
2019-02-12T06:27:23.022Z,0
2019-02-12T06:28:32.462Z,0
2019-02-12T06:29:42.161Z,0
2019-02-12T06:30:53.621Z,0
2019-02-12T06:32:03.314Z,0
2019-02-12T06:33:17.327Z,0
2019-02-12T06:34:27.019Z,0
2019-02-12T06:35:36.460Z,0
2019-02-12T06:36:46.150Z,0
2019-02-12T06:37:56.121Z,0
2019-02-12T06:39:06.093Z,0
2019-02-12T06:40:16.031Z,0
2019-02-12T06:41:25.985Z,0
2019-02-12T06:42:35.937Z,0
2019-02-12T06:43:45.617Z,5
2019-02-12T06:44:55.310Z,5
2019-02-12T06:46:05.263Z,5
2019-02-12T06:47:14.968Z,5
2019-02-12T06:48:24.659Z,5
2019-02-12T06:49:34.339Z,5
2019-02-12T06:50:44.016Z,10
2019-02-12T06:51:53.970Z,10
2019-02-12T06:53:12.001Z,10
2019-02-12T06:54:22.187Z,10
2019-02-12T06:55:32.113Z,15
2019-02-12T06:56:42.086Z,15
2019-02-12T06:57:51.776Z,15
2019-02-12T06:59:01.728Z,15
2019-02-12T07:00:11.257Z,20
2019-02-12T07:01:21.226Z,20
2019-02-12T07:02:31.284Z,20
2019-02-12T07:03:40.975Z,25
2019-02-12T07:04:50.646Z,25
2019-02-12T07:06:00.350Z,25
2019-02-12T07:07:10.032Z,25
2019-02-12T07:08:19.469Z,30
2019-02-12T07:09:29.164Z,30
2019-02-12T07:10:39.088Z,30
2019-02-12T07:11:48.789Z,30
2019-02-12T07:12:58.730Z,35
2019-02-12T07:14:08.670Z,35
2019-02-12T07:15:18.615Z,35
2019-02-12T07:16:28.607Z,35
2019-02-12T07:17:38.041Z,40
2019-02-12T07:18:47.969Z,40
2019-02-12T07:19:57.642Z,40
2019-02-12T07:21:07.321Z,45
2019-02-12T07:22:17.294Z,45
2019-02-12T07:23:30.811Z,50
2019-02-12T07:24:40.766Z,50
2019-02-12T07:25:50.703Z,55
2019-02-12T07:27:00.687Z,55
2019-02-12T07:28:10.369Z,60
2019-02-12T07:29:20.391Z,60
2019-02-12T07:30:30.067Z,60
2019-02-12T07:31:41.840Z,65
2019-02-12T07:32:51.774Z,65
2019-02-12T07:34:01.486Z,65
2019-02-12T07:35:10.957Z,70
2019-02-12T07:36:20.920Z,70
2019-02-12T07:37:30.852Z,75
2019-02-12T07:38:40.779Z,75
2019-02-12T07:39:50.707Z,80
2019-02-12T07:41:00.397Z,80
2019-02-12T07:42:10.094Z,85
2019-02-12T07:43:19.786Z,90
2019-02-12T07:44:29.465Z,90
2019-02-12T07:45:39.150Z,95
2019-02-12T07:46:49.076Z,95
2019-02-12T07:47:59.006Z,100
2019-02-12T07:49:08.493Z,100
2019-02-12T07:50:18.413Z,105
2019-02-12T07:51:28.112Z,105
2019-02-12T07:52:37.921Z,105
2019-02-12T07:53:47.867Z,105
2019-02-12T07:54:57.581Z,105
2019-02-12T07:56:07.273Z,110
2019-02-12T07:57:16.964Z,110
2019-02-12T07:58:26.397Z,110
2019-02-12T07:59:36.093Z,110
2019-02-12T08:00:45.790Z,110
2019-02-12T08:01:55.781Z,110
2019-02-12T08:03:05.726Z,115
2019-02-12T08:04:15.185Z,115
2019-02-12T08:05:25.127Z,115
2019-02-12T08:06:35.082Z,120
2019-02-12T08:07:45.006Z,120
2019-02-12T08:08:54.936Z,120
2019-02-12T08:10:04.637Z,125
2019-02-12T08:11:14.606Z,130
2019-02-12T08:12:24.565Z,135
2019-02-12T08:13:34.249Z,135
2019-02-12T08:14:44.216Z,135
2019-02-12T08:15:53.651Z,140
2019-02-12T08:17:03.618Z,145
2019-02-12T08:18:13.348Z,140
2019-02-12T08:19:23.304Z,140
2019-02-12T08:20:32.996Z,145
2019-02-12T08:21:42.920Z,150
2019-02-12T08:22:52.351Z,150
2019-02-12T08:24:02.313Z,150
2019-02-12T08:25:12.254Z,150
2019-02-12T08:26:21.934Z,155
2019-02-12T08:27:33.739Z,155
2019-02-12T08:28:43.686Z,155
2019-02-12T08:29:53.380Z,155
2019-02-12T08:31:03.067Z,155
2019-02-12T08:32:12.792Z,160
2019-02-12T08:33:22.222Z,160
2019-02-12T08:34:31.903Z,160
2019-02-12T08:35:41.389Z,165
2019-02-12T08:36:50.628Z,165
2019-02-12T08:38:00.589Z,165
2019-02-12T08:39:10.545Z,170
2019-02-12T08:40:20.289Z,170
2019-02-12T08:41:30.240Z,170
2019-02-12T08:42:39.950Z,170
2019-02-12T08:43:52.277Z,175
2019-02-12T08:45:02.028Z,175
2019-02-12T08:46:12.010Z,175
2019-02-12T08:47:21.699Z,175
2019-02-12T08:48:31.408Z,175
2019-02-12T08:49:40.591Z,170
2019-02-12T08:50:49.776Z,170
2019-02-12T08:51:59.203Z,170
2019-02-12T08:53:08.886Z,170
2019-02-12T08:54:18.068Z,170
2019-02-12T08:55:27.833Z,170
2019-02-12T08:56:37.778Z,170
2019-02-12T08:57:47.718Z,170
2019-02-12T08:58:57.406Z,175
2019-02-12T09:00:08.773Z,180
2019-02-12T09:01:18.224Z,185
2019-02-12T09:02:28.162Z,185
2019-02-12T09:03:37.907Z,190
2019-02-12T09:04:47.879Z,190
2019-02-12T09:05:57.567Z,195
2019-02-12T09:07:07.009Z,190
2019-02-12T09:08:16.987Z,190
2019-02-12T09:09:26.929Z,190
2019-02-12T09:10:36.630Z,190
2019-02-12T09:11:46.304Z,185
2019-02-12T09:12:56.263Z,185
2019-02-12T09:14:05.717Z,185
2019-02-12T09:15:15.669Z,185
2019-02-12T09:16:25.646Z,180
2019-02-12T09:17:35.349Z,180
2019-02-12T09:18:44.789Z,185
2019-02-12T09:19:54.486Z,180
2019-02-12T09:21:03.933Z,175
2019-02-12T09:22:13.870Z,175
2019-02-12T09:23:23.812Z,180
2019-02-12T09:24:33.754Z,180
2019-02-12T09:25:43.219Z,175
2019-02-12T09:26:52.893Z,180
2019-02-12T09:28:02.873Z,180
2019-02-12T09:29:12.559Z,180
2019-02-12T09:30:22.278Z,180
2019-02-12T09:31:31.963Z,180
2019-02-12T09:32:41.157Z,180
2019-02-12T09:33:50.845Z,180
2019-02-12T09:35:00.543Z,180
2019-02-12T09:36:10.282Z,185
2019-02-12T09:37:19.725Z,185
2019-02-12T09:38:29.419Z,185
2019-02-12T09:39:39.105Z,190
2019-02-12T09:40:49.047Z,195
2019-02-12T09:41:58.737Z,205
2019-02-12T09:43:08.674Z,205
2019-02-12T09:44:17.864Z,210
2019-02-12T09:45:27.842Z,210
2019-02-12T09:46:37.806Z,215
2019-02-12T09:47:47.747Z,220
2019-02-12T09:48:59.848Z,225
2019-02-12T09:50:09.554Z,230
2019-02-12T09:51:19.505Z,235
2019-02-12T09:52:28.935Z,250
2019-02-12T09:53:38.869Z,250
2019-02-12T09:54:48.585Z,250
2019-02-12T09:55:58.552Z,255
2019-02-12T09:57:08.552Z,260
2019-02-12T09:58:18.242Z,260
2019-02-12T09:59:27.932Z,265
2019-02-12T10:00:37.629Z,270
2019-02-12T10:01:47.657Z,275
2019-02-12T10:02:57.360Z,280
2019-02-12T10:04:07.302Z,275
2019-02-12T10:05:17.282Z,270
2019-02-12T10:06:31.611Z,265
2019-02-12T10:07:41.973Z,265
2019-02-12T10:08:51.768Z,265
2019-02-12T10:10:01.457Z,270
2019-02-12T10:11:11.398Z,275
2019-02-12T10:12:21.399Z,285
2019-02-12T10:13:31.332Z,285
2019-02-12T10:14:41.023Z,290
2019-02-12T10:15:50.465Z,290
2019-02-12T10:17:00.171Z,295
2019-02-12T10:18:10.167Z,295
2019-02-12T10:19:19.846Z,300
2019-02-12T10:20:29.302Z,305
2019-02-12T10:21:38.987Z,305
2019-02-12T10:22:48.916Z,305
2019-02-12T10:23:58.613Z,305
2019-02-12T10:25:08.308Z,300
2019-02-12T10:26:17.742Z,300
2019-02-12T10:27:27.679Z,300
2019-02-12T10:28:37.363Z,305
2019-02-12T10:29:47.052Z,305
2019-02-12T10:30:56.742Z,310
2019-02-12T10:32:15.589Z,315
2019-02-12T10:33:25.609Z,325
2019-02-12T10:34:35.324Z,330
2019-02-12T10:35:45.010Z,330
2019-02-12T10:36:54.686Z,330
2019-02-12T10:38:04.629Z,325
2019-02-12T10:39:14.319Z,325
2019-02-12T10:40:23.998Z,325
2019-02-12T10:41:33.461Z,325
2019-02-12T10:42:43.197Z,325
2019-02-12T10:43:52.903Z,330
2019-02-12T10:45:02.836Z,330
2019-02-12T10:46:12.280Z,330
2019-02-12T10:47:23.235Z,330
2019-02-12T10:48:33.058Z,335
2019-02-12T10:49:42.993Z,345
2019-02-12T10:50:52.443Z,345
2019-02-12T10:52:02.121Z,350
2019-02-12T10:53:13.552Z,355
2019-02-12T10:54:30.314Z,360
2019-02-12T10:55:40.295Z,365
2019-02-12T10:56:50.015Z,365
2019-02-12T10:57:59.471Z,370
2019-02-12T10:59:09.439Z,380
2019-02-12T11:00:19.139Z,380
2019-02-12T11:01:29.072Z,380
2019-02-12T11:02:38.261Z,375
2019-02-12T11:03:47.949Z,375
2019-02-12T11:04:57.882Z,375
2019-02-12T11:06:07.884Z,370
2019-02-12T11:07:17.811Z,365
2019-02-12T11:08:27.738Z,360
2019-02-12T11:09:37.665Z,365
2019-02-12T11:10:47.622Z,360
2019-02-12T11:11:57.315Z,350
2019-02-12T11:13:07.243Z,345
2019-02-12T11:14:16.914Z,340
2019-02-12T11:15:26.597Z,340
2019-02-12T11:16:36.544Z,335
2019-02-12T11:17:46.222Z,330
2019-02-12T11:18:55.903Z,335
2019-02-12T11:20:05.583Z,350
2019-02-12T11:21:21.546Z,345
2019-02-12T11:22:30.982Z,385
2019-02-12T11:23:40.422Z,405
2019-02-12T11:24:50.097Z,415
2019-02-12T11:25:59.778Z,400
2019-02-12T11:27:09.220Z,400
2019-02-12T11:28:18.907Z,400
2019-02-12T11:29:30.382Z,390
2019-02-12T11:30:40.191Z,360
2019-02-12T11:31:50.132Z,350
2019-02-12T11:33:00.074Z,350
2019-02-12T11:34:09.768Z,345
2019-02-12T11:35:19.455Z,330
2019-02-12T11:36:29.408Z,325
2019-02-12T11:37:38.834Z,335
2019-02-12T11:38:48.517Z,320
2019-02-12T11:39:58.452Z,335
2019-02-12T11:41:08.163Z,340
2019-02-12T11:42:17.854Z,310
2019-02-12T11:43:27.036Z,325
2019-02-12T11:44:36.464Z,410
2019-02-12T11:45:45.650Z,380
2019-02-12T11:46:55.081Z,395
2019-02-12T11:48:04.760Z,375
2019-02-12T11:49:14.447Z,395
2019-02-12T11:50:23.385Z,390
2019-02-12T11:51:33.062Z,385
2019-02-12T11:52:43.012Z,380
2019-02-12T11:53:52.700Z,375
2019-02-12T11:55:02.125Z,380
2019-02-12T11:56:11.809Z,380
2019-02-12T11:57:22.745Z,380
2019-02-12T11:58:32.439Z,405
2019-02-12T11:59:42.135Z,410
2019-02-12T12:00:51.829Z,415
2019-02-12T12:02:01.503Z,415
2019-02-12T12:03:11.198Z,415
2019-02-12T12:04:21.129Z,410
2019-02-12T12:05:30.852Z,395
2019-02-12T12:06:40.549Z,380
2019-02-12T12:07:50.262Z,385
2019-02-12T12:08:59.940Z,375
2019-02-12T12:10:09.589Z,380
2019-02-12T12:11:19.524Z,365
2019-02-12T12:12:29.209Z,345
2019-02-12T12:13:38.890Z,350
2019-02-12T12:14:48.382Z,345
2019-02-12T12:15:58.072Z,350
2019-02-12T12:17:07.755Z,350
2019-02-12T12:18:17.688Z,350
2019-02-12T12:19:27.377Z,340
2019-02-12T12:20:37.076Z,335
2019-02-12T12:21:47.969Z,325
2019-02-12T12:22:57.658Z,300
2019-02-12T12:24:07.593Z,300
2019-02-12T12:25:17.549Z,300
2019-02-12T12:26:27.248Z,305
2019-02-12T12:27:36.983Z,315
2019-02-12T12:28:48.178Z,320
2019-02-12T12:29:57.611Z,330
2019-02-12T12:31:07.293Z,320
2019-02-12T12:32:16.474Z,315
2019-02-12T12:33:25.663Z,315
2019-02-12T12:34:35.603Z,305
2019-02-12T12:35:45.546Z,300
2019-02-12T12:36:55.221Z,285
2019-02-12T12:38:04.653Z,275
2019-02-12T12:39:14.590Z,260
2019-02-12T12:40:24.038Z,255
2019-02-12T12:41:33.973Z,245
2019-02-12T12:42:43.651Z,240
2019-02-12T12:43:53.106Z,230
2019-02-12T12:45:03.048Z,225
2019-02-12T12:46:11.988Z,210
2019-02-12T12:47:22.664Z,190
2019-02-12T12:48:32.119Z,170
2019-02-12T12:49:41.829Z,160
2019-02-12T12:50:51.534Z,160
2019-02-12T12:52:00.740Z,175
2019-02-12T12:53:10.170Z,190
2019-02-12T12:54:19.875Z,210
2019-02-12T12:55:30.228Z,215
2019-02-12T12:56:39.932Z,215
2019-02-12T12:57:51.294Z,215
2019-02-12T12:59:00.733Z,205
2019-02-12T13:00:10.438Z,205
2019-02-12T13:01:19.879Z,205
2019-02-12T13:02:29.810Z,200
2019-02-12T13:03:39.513Z,195
2019-02-12T13:04:48.442Z,190
2019-02-12T13:05:57.884Z,175
2019-02-12T13:07:07.567Z,175
2019-02-12T13:08:17.000Z,160
2019-02-12T13:09:26.452Z,160
2019-02-12T13:10:35.890Z,175
2019-02-12T13:11:44.828Z,205
2019-02-12T13:12:54.523Z,215
2019-02-12T13:14:03.963Z,215
2019-02-12T13:15:13.643Z,210
2019-02-12T13:16:23.326Z,225
2019-02-12T13:17:33.263Z,260
2019-02-12T13:18:43.270Z,280
2019-02-12T13:19:52.951Z,290
2019-02-12T13:21:04.002Z,280
2019-02-12T13:22:12.936Z,265
2019-02-12T13:23:22.632Z,245
2019-02-12T13:24:31.573Z,210
2019-02-12T13:25:41.262Z,190
2019-02-12T13:26:51.200Z,205
2019-02-12T13:28:00.386Z,210
2019-02-12T13:29:10.319Z,205
2019-02-12T13:30:19.752Z,220
2019-02-12T13:31:29.427Z,230
2019-02-12T13:32:38.620Z,235
2019-02-12T13:33:48.307Z,245
2019-02-12T13:34:58.258Z,265
2019-02-12T13:36:07.944Z,305
2019-02-12T13:37:17.618Z,345
2019-02-12T13:38:27.309Z,380
2019-02-12T13:39:36.987Z,390
2019-02-12T13:40:46.697Z,375
2019-02-12T13:41:56.650Z,325
2019-02-12T13:43:05.835Z,320
2019-02-12T13:44:15.518Z,345
2019-02-12T13:45:25.453Z,370
2019-02-12T13:46:35.384Z,380
2019-02-12T13:47:44.558Z,390
2019-02-12T13:48:54.255Z,390
2019-02-12T13:50:04.109Z,365
2019-02-12T13:51:13.800Z,375
2019-02-12T13:52:23.229Z,405
2019-02-12T13:53:32.908Z,425
2019-02-12T13:54:42.837Z,410
2019-02-12T13:55:52.053Z,420
2019-02-12T13:57:01.983Z,440
2019-02-12T13:58:11.665Z,440
2019-02-12T13:59:21.600Z,420
2019-02-12T14:00:31.296Z,405
2019-02-12T14:01:41.234Z,405
2019-02-12T14:02:50.956Z,395
2019-02-12T14:04:00.753Z,380
2019-02-12T14:05:10.770Z,395
2019-02-12T14:06:20.145Z,480
2019-02-12T14:07:30.090Z,500
2019-02-12T14:08:39.555Z,585
2019-02-12T14:09:49.236Z,825
2019-02-12T14:10:58.928Z,890
2019-02-12T14:12:08.614Z,855
2019-02-12T14:13:18.313Z,880
2019-02-12T14:14:28.580Z,1000
2019-02-12T14:15:38.273Z,1000
2019-02-12T14:16:47.957Z,940
2019-02-12T14:17:58.599Z,935
2019-02-12T14:19:08.303Z,795
2019-02-12T14:20:18.007Z,760
2019-02-12T14:21:27.947Z,530
2019-02-12T14:22:37.386Z,415
2019-02-12T14:23:47.323Z,380
2019-02-12T14:24:57.007Z,380
2019-02-12T14:26:06.702Z,385
2019-02-12T14:27:16.389Z,380
2019-02-12T14:28:25.569Z,415
2019-02-12T14:29:35.500Z,495
2019-02-12T14:30:45.205Z,345
2019-02-12T14:32:02.542Z,245
2019-02-12T14:33:12.510Z,195
2019-02-12T14:34:21.706Z,180
2019-02-12T14:35:31.403Z,105
2019-02-12T14:36:40.856Z,85
2019-02-12T14:37:50.547Z,75
2019-02-12T14:39:00.699Z,65
2019-02-12T14:40:10.401Z,50
2019-02-12T14:41:20.097Z,50
2019-02-12T14:42:30.047Z,50
2019-02-12T14:43:39.744Z,55
2019-02-12T14:44:49.434Z,80
2019-02-12T14:45:59.175Z,145
2019-02-12T14:47:09.132Z,195
2019-02-12T14:48:18.562Z,95
2019-02-12T14:49:28.257Z,135
2019-02-12T14:50:37.688Z,215
2019-02-12T14:51:47.635Z,280
2019-02-12T14:52:57.064Z,315
2019-02-12T14:54:07.381Z,345
2019-02-12T14:55:17.136Z,345
2019-02-12T14:56:27.068Z,320
2019-02-12T14:57:36.743Z,275
2019-02-12T14:58:46.173Z,240
2019-02-12T14:59:56.110Z,230
2019-02-12T15:01:05.812Z,230
2019-02-12T15:02:15.512Z,225
2019-02-12T15:03:25.201Z,210
2019-02-12T15:04:35.130Z,200
2019-02-12T15:05:44.836Z,190
2019-02-12T15:06:54.772Z,185
2019-02-12T15:08:04.462Z,185
2019-02-12T15:09:14.150Z,180
2019-02-12T15:10:23.580Z,170
2019-02-12T15:11:32.531Z,150
2019-02-12T15:12:42.461Z,140
2019-02-12T15:13:51.651Z,135
2019-02-12T15:15:01.594Z,125
2019-02-12T15:16:11.280Z,115
2019-02-12T15:17:20.962Z,100
2019-02-12T15:18:30.641Z,100
2019-02-12T15:19:40.069Z,120
2019-02-12T15:20:50.015Z,155
2019-02-12T15:21:59.702Z,180
2019-02-12T15:23:09.132Z,185
2019-02-12T15:24:18.809Z,190
2019-02-12T15:25:28.490Z,180
2019-02-12T15:26:38.186Z,180
2019-02-12T15:27:48.122Z,180
2019-02-12T15:28:58.078Z,190
2019-02-12T15:30:07.804Z,180
2019-02-12T15:31:17.242Z,180
2019-02-12T15:32:27.191Z,175
2019-02-12T15:33:37.152Z,170
2019-02-12T15:34:47.088Z,155
2019-02-12T15:35:56.768Z,145
2019-02-12T15:37:06.456Z,140
2019-02-12T15:38:16.389Z,140
2019-02-12T15:39:26.326Z,135
2019-02-12T15:40:36.020Z,125
2019-02-12T15:41:45.733Z,115
2019-02-12T15:42:54.966Z,115
2019-02-12T15:44:04.670Z,125
2019-02-12T15:45:13.606Z,140
2019-02-12T15:46:23.297Z,140
2019-02-12T15:47:32.980Z,140
2019-02-12T15:48:42.904Z,145
2019-02-12T15:49:52.832Z,140
2019-02-12T15:51:02.275Z,135
2019-02-12T15:52:11.986Z,135
2019-02-12T15:53:21.913Z,130
2019-02-12T15:54:31.336Z,125
2019-02-12T15:55:55.816Z,125
2019-02-12T15:57:05.498Z,125
2019-02-12T15:58:17.220Z,120
2019-02-12T15:59:27.153Z,115
2019-02-12T16:00:36.583Z,110
2019-02-12T16:01:47.047Z,100
2019-02-12T16:03:00.742Z,95
2019-02-12T16:04:10.676Z,90
2019-02-12T16:05:21.768Z,85
2019-02-12T16:06:31.450Z,80
2019-02-12T16:07:42.605Z,75
2019-02-12T16:08:55.764Z,70
2019-02-12T16:10:06.323Z,65
2019-02-12T16:11:17.065Z,60
2019-02-12T16:12:30.896Z,55
2019-02-12T16:13:43.624Z,50
2019-02-12T16:14:57.149Z,45
2019-02-12T16:16:09.891Z,40
2019-02-12T16:17:21.606Z,35
2019-02-12T16:18:32.832Z,35
2019-02-12T16:19:42.275Z,30
2019-02-12T16:20:52.210Z,30
2019-02-12T16:22:02.134Z,25
2019-02-12T16:23:11.572Z,25
2019-02-12T16:24:21.507Z,20
2019-02-12T16:25:31.245Z,20
2019-02-12T16:26:40.917Z,20
2019-02-12T16:27:50.595Z,15
2019-02-12T16:29:00.271Z,15
2019-02-12T16:30:10.532Z,10
2019-02-12T16:31:21.088Z,10
2019-02-12T16:32:30.787Z,10
2019-02-12T16:33:40.472Z,10